Meteorología y climatología de Navarra
Datos de la estación - Meteo Navarra

Estación de Carcastillo (La Oliva) GN

Altitud 343 m.


Datos desde el 15/02/2020 hasta el 16/02/2020 en horario solar
Los datos son PROVISIONALES

Anterior Página 1 de 1 Siguiente Descargar: Formato para Excel 2000 o superior   Formato csv   Formato para OpenOffice Calc
Fecha Temperatura Humedad relativa Radiación global Insolación Precipitación Vel. viento 10 m Vel. viento 10 m Dir. viento 10 m
ºC % W/m² s l/m² m/s km/h º
15/02/2020 0:00 4.1 91 0.0 0 0.0 0.0 0.0 0
15/02/2020 0:10 3.8 92 0.0 0 0.0 0.0 0.0 0
15/02/2020 0:20 3.7 93 0.0 0 0.0 1.0 3.6 132
15/02/2020 0:30 3.9 93 0.0 0 0.0 1.7 6.0 124
15/02/2020 0:40 3.7 93 0.0 0 0.0 2.1 7.4 125
15/02/2020 0:50 3.6 94 0.0 0 0.0 2.1 7.5 123
15/02/2020 1:00 3.6 95 0.0 0 0.0 2.3 8.4 112
15/02/2020 1:10 3.7 95 0.0 0 0.0 2.7 9.6 116
15/02/2020 1:20 3.8 95 0.0 0 0.0 2.1 7.5 122
15/02/2020 1:30 3.7 94 0.0 0 0.0 2.4 8.6 118
15/02/2020 1:40 3.3 94 0.0 0 0.0 2.8 10.0 119
15/02/2020 1:50 3.2 95 0.0 0 0.0 2.3 8.4 122
15/02/2020 2:00 3.2 96 0.0 0 0.0 2.0 7.2 112
15/02/2020 2:10 3.1 96 0.0 0 0.0 1.9 6.9 115
15/02/2020 2:20 3.1 96 0.0 0 0.0 2.6 9.3 115
15/02/2020 2:30 3.3 96 0.0 0 0.0 2.8 10.0 115
15/02/2020 2:40 3.4 96 0.0 0 0.0 2.6 9.2 112
15/02/2020 2:50 3.4 95 0.0 0 0.0 2.2 7.8 111
15/02/2020 3:00 3.2 96 0.0 0 0.0 2.4 8.6 118
15/02/2020 3:10 3.2 96 0.0 0 0.0 2.6 9.2 121
15/02/2020 3:20 3.3 95 0.0 0 0.0 2.0 7.3 118
15/02/2020 3:30 3.1 95 0.0 0 0.0 2.3 8.4 116
15/02/2020 3:40 2.9 96 0.0 0 0.0 2.5 9.0 123
15/02/2020 3:50 2.9 96 0.0 0 0.0 2.4 8.8 125
15/02/2020 4:00 3.2 97 0.0 0 0.0 1.7 6.3 125
15/02/2020 4:10 3.3 96 0.0 0 0.0 0.9 3.2 135
15/02/2020 4:20 3.2 96 0.0 0 0.0 2.0 7.2 126
15/02/2020 4:30 3.4 97 0.0 0 0.0 2.3 8.1 138
15/02/2020 4:40 3.3 95 0.0 0 0.0 0.8 2.8 132
15/02/2020 4:50 3.2 96 0.0 0 0.0 1.6 5.8 140
15/02/2020 5:00 3.3 97 0.0 0 0.0 1.1 4.0 141
15/02/2020 5:10 3.1 96 0.0 0 0.0 0.0 0.1 161
15/02/2020 5:20 2.8 95 0.0 0 0.0 0.1 0.3 325
15/02/2020 5:30 2.5 95 0.0 0 0.0 0.0 0.0 0
15/02/2020 5:40 2.0 94 0.0 0 0.0 0.0 0.0 0
15/02/2020 5:50 1.9 96 0.0 0 0.0 0.1 0.4 140
15/02/2020 6:00 1.9 97 0.0 0 0.0 0.1 0.4 149
15/02/2020 6:10 1.7 97 0.0 0 0.0 1.5 5.5 133
15/02/2020 6:20 1.6 97 0.0 0 0.0 1.7 6.1 125
15/02/2020 6:30 1.8 98 0.0 0 0.0 1.8 6.3 120
15/02/2020 6:40 1.4 97 0.0 0 0.0 1.6 5.8 122
15/02/2020 6:50 1.3 97 0.0 0 0.0 1.3 4.7 134
15/02/2020 7:00 1.3 98 0.0 0 0.0 0.4 1.4 148
15/02/2020 7:10 1.5 99 0.0 0 0.0 1.1 3.8 142
15/02/2020 7:20 1.4 98 1.8 0 0.0 1.2 4.4 122
15/02/2020 7:30 1.4 98 31.8 354 0.0 1.8 6.4 114
15/02/2020 7:40 1.6 98 53.8 600 0.0 2.3 8.3 121
15/02/2020 7:50 2.1 98 78.2 600 0.0 0.7 2.5 116
15/02/2020 8:00 2.7 98 103.6 600 0.0 1.8 6.3 109
15/02/2020 8:10 3.1 97 131.4 600 0.0 2.6 9.4 123
15/02/2020 8:20 3.7 95 161.3 600 0.0 2.0 7.3 115
15/02/2020 8:30 4.3 94 189.8 600 0.0 1.9 6.7 109
15/02/2020 8:40 5.1 92 218.8 600 0.0 1.5 5.4 108
15/02/2020 8:50 5.6 89 247.5 600 0.0 1.8 6.5 120
15/02/2020 9:00 6.4 87 277.3 600 0.0 1.7 6.0 100
15/02/2020 9:10 7.0 83 304.8 600 0.0 2.1 7.7 117
15/02/2020 9:20 7.5 82 332.2 600 0.0 1.7 6.0 123
15/02/2020 9:30 8.3 80 358.4 600 0.0 1.3 4.7 118
15/02/2020 9:40 9.1 78 382.6 600 0.0 0.3 1.2 143
15/02/2020 9:50 10.0 76 405.7 600 0.0 0.0 0.0 187
15/02/2020 10:00 10.6 73 426.0 600 0.0 0.3 1.0 274
15/02/2020 10:10 10.6 74 418.6 600 0.0 1.8 6.6 308
15/02/2020 10:20 10.3 77 463.0 600 0.0 1.6 5.7 305
15/02/2020 10:30 10.6 75 478.7 600 0.0 1.5 5.3 311
15/02/2020 10:40 11.0 74 493.5 600 0.0 0.8 2.8 271
15/02/2020 10:50 11.6 73 508.2 600 0.0 1.2 4.2 278
15/02/2020 11:00 11.8 73 533.7 600 0.0 1.3 4.8 292
15/02/2020 11:10 12.2 73 549.0 600 0.0 1.5 5.2 301
15/02/2020 11:20 12.8 71 561.7 600 0.0 0.8 2.9 253
15/02/2020 11:30 13.7 69 566.4 600 0.0 1.2 4.4 210
15/02/2020 11:40 14.3 68 580.9 600 0.0 0.9 3.1 197
15/02/2020 11:50 14.6 66 591.6 600 0.0 2.1 7.4 171
15/02/2020 12:00 14.9 66 596.8 600 0.0 1.6 5.7 144
15/02/2020 12:10 14.9 65 599.5 600 0.0 1.4 5.1 141
15/02/2020 12:20 15.2 64 599.9 600 0.0 1.8 6.6 144
15/02/2020 12:30 15.4 62 599.8 600 0.0 2.1 7.6 155
15/02/2020 12:40 15.5 62 600.5 600 0.0 3.0 10.9 142
15/02/2020 12:50 15.5 61 598.1 600 0.0 2.6 9.5 154
15/02/2020 13:00 15.9 61 600.9 600 0.0 2.4 8.5 156
15/02/2020 13:10 15.8 59 556.4 600 0.0 3.4 12.2 147
15/02/2020 13:20 15.6 59 595.2 600 0.0 4.4 15.7 148
15/02/2020 13:30 15.8 60 508.3 600 0.0 4.3 15.3 141
15/02/2020 13:40 15.9 60 480.2 600 0.0 4.5 16.0 141
15/02/2020 13:50 15.8 60 280.7 244 0.0 4.2 15.0 148
15/02/2020 14:00 15.5 61 216.9 4 0.0 3.9 13.9 146
15/02/2020 14:10 15.5 60 345.7 586 0.0 4.3 15.4 148
15/02/2020 14:20 15.7 60 368.8 600 0.0 3.8 13.8 153
15/02/2020 14:30 15.9 59 372.1 600 0.0 3.2 11.4 151
15/02/2020 14:40 16.2 59 330.9 600 0.0 3.1 11.0 153
15/02/2020 14:50 16.2 59 348.7 600 0.0 2.7 9.8 152
15/02/2020 15:00 16.5 58 280.9 600 0.0 2.8 10.0 154
15/02/2020 15:10 16.3 58 252.8 600 0.0 3.0 10.8 150
15/02/2020 15:20 16.3 59 247.8 600 0.0 3.4 12.1 148
15/02/2020 15:30 16.3 60 217.0 600 0.0 2.7 9.7 149
15/02/2020 15:40 16.3 61 177.0 378 0.0 3.2 11.5 141
15/02/2020 15:50 16.2 61 135.9 0 0.0 2.8 10.0 147
15/02/2020 16:00 16.0 62 119.4 0 0.0 2.3 8.2 147
15/02/2020 16:10 15.9 62 109.3 0 0.0 1.9 7.0 134
15/02/2020 16:20 15.8 64 99.9 0 0.0 1.5 5.3 89
15/02/2020 16:30 15.6 66 80.7 0 0.0 1.4 5.0 84
15/02/2020 16:40 15.5 66 60.1 0 0.0 1.1 3.8 75
15/02/2020 16:50 15.3 67 45.3 0 0.0 0.0 0.0 0
15/02/2020 17:00 15.2 68 33.1 0 0.0 0.0 0.0 0
15/02/2020 17:10 14.7 69 10.7 0 0.0 0.1 0.4 273
15/02/2020 17:20 14.3 71 0.0 0 0.0 0.4 1.3 261
15/02/2020 17:30 13.9 72 0.0 0 0.0 0.5 1.9 244
15/02/2020 17:40 13.5 74 0.0 0 0.0 0.8 2.7 225
15/02/2020 17:50 13.2 75 0.0 0 0.0 1.0 3.7 243
15/02/2020 18:00 12.7 76 0.0 0 0.0 1.3 4.8 234
15/02/2020 18:10 12.4 78 0.0 0 0.0 2.0 7.1 211
15/02/2020 18:20 12.3 78 0.0 0 0.0 1.0 3.5 257
15/02/2020 18:30 12.1 77 0.0 0 0.0 0.9 3.1 255
15/02/2020 18:40 11.8 78 0.0 0 0.0 0.9 3.1 249
15/02/2020 18:50 11.5 79 0.0 0 0.0 0.6 2.2 248
15/02/2020 19:00 10.8 81 0.0 0 0.0 1.2 4.4 357
15/02/2020 19:10 10.6 82 0.0 0 0.0 0.6 2.0 302
15/02/2020 19:20 10.2 83 0.0 0 0.0 1.3 4.8 273
15/02/2020 19:30 10.3 84 0.0 0 0.0 1.6 5.9 219
15/02/2020 19:40 10.1 84 0.0 0 0.0 1.5 5.5 196
15/02/2020 19:50 9.8 84 0.0 0 0.0 0.0 0.1 179
15/02/2020 20:00 9.3 84 0.0 0 0.0 0.3 1.0 9
15/02/2020 20:10 8.8 86 0.0 0 0.0 0.0 0.1 209
15/02/2020 20:20 8.4 86 0.0 0 0.0 0.0 0.0 0
15/02/2020 20:30 7.9 87 0.0 0 0.0 0.7 2.4 70
15/02/2020 20:40 7.5 89 0.0 0 0.0 0.8 2.8 115
15/02/2020 20:50 7.1 88 0.0 0 0.0 1.1 3.9 105
15/02/2020 21:00 6.9 90 0.0 0 0.0 1.3 4.6 119
15/02/2020 21:10 7.4 93 0.0 0 0.0 1.1 3.9 116
15/02/2020 21:20 6.9 90 0.0 0 0.0 0.7 2.6 130
15/02/2020 21:30 6.5 90 0.0 0 0.0 0.1 0.3 121
15/02/2020 21:40 6.1 92 0.0 0 0.0 0.8 3.0 117
15/02/2020 21:50 5.9 92 0.0 0 0.0 1.4 4.9 119
15/02/2020 22:00 6.0 95 0.0 0 0.0 1.3 4.6 117
15/02/2020 22:10 5.7 94 0.0 0 0.0 1.7 6.1 112
15/02/2020 22:20 6.1 97 0.0 0 0.0 2.3 8.3 106
15/02/2020 22:30 6.3 96 0.0 0 0.0 1.9 6.7 112
15/02/2020 22:40 6.0 95 0.0 0 0.0 1.8 6.5 120
15/02/2020 22:50 5.9 96 0.0 0 0.0 1.8 6.4 131
15/02/2020 23:00 5.9 95 0.0 0 0.0 2.0 7.1 117
15/02/2020 23:10 5.5 95 0.0 0 0.0 2.6 9.5 115
15/02/2020 23:20 5.4 96 0.0 0 0.0 3.7 13.2 111
15/02/2020 23:30 5.4 97 0.0 0 0.0 4.0 14.3 101
15/02/2020 23:40 5.5 97 0.0 0 0.0 4.7 16.8 103
15/02/2020 23:50 5.8 97 0.0 0 0.0 4.1 14.7 124
Anterior Página 1 de 1 Siguiente

NOTA: Tipo de datos según el color:
   - Valores diarios o 10 minutos correctos
   - Valores diarios calculados a partir de un número de datos 10 minutos menor que 144 y mayor que 120, o de un número de datos semihorarios menor que 48 y mayor que 40 (caso de las estaciones de INTIA y del Ministerio)
   - Valores diez minutos estimados


Contacto        Enlaces        Aviso legal